createdAt,value
2023-05-04T00:02:06.663Z,96662.88
2023-05-04T00:04:33.107Z,96658.47
2023-05-04T00:06:59.515Z,96655.56
2023-05-04T00:09:25.966Z,96659.94
2023-05-04T00:11:52.443Z,96658.56
2023-05-04T00:14:18.765Z,96652.31
2023-05-04T00:16:45.760Z,96655.47
2023-05-04T00:19:12.447Z,96651.28
2023-05-04T00:21:38.776Z,96651.81
2023-05-04T00:24:05.220Z,96654.16
2023-05-04T00:26:31.540Z,96650.03
2023-05-04T00:28:57.921Z,96646.56
2023-05-04T00:31:24.284Z,96647.47
2023-05-04T00:33:50.703Z,96647.81
2023-05-04T00:36:17.371Z,96640.81
2023-05-04T00:38:50.731Z,96641.59
2023-05-04T00:41:17.958Z,96635.81
2023-05-04T00:43:45.566Z,96642.41
2023-05-04T00:46:12.112Z,96643.81
2023-05-04T00:48:39.256Z,96638.31
2023-05-04T00:51:06.587Z,96644.34
2023-05-04T00:53:32.929Z,96646.69
2023-05-04T00:55:59.518Z,96646.72
2023-05-04T00:58:26.292Z,96646.03
2023-05-04T01:00:52.860Z,96651.75
2023-05-04T01:03:19.453Z,96650.16
2023-05-04T01:05:53.149Z,96653.75
2023-05-04T01:08:21.798Z,96655.34
2023-05-04T01:10:53.975Z,96645.28
2023-05-04T01:13:21.815Z,96651.03
2023-05-04T01:15:48.962Z,96654.66
2023-05-04T01:18:16.581Z,96657.47
2023-05-04T01:20:43.130Z,96653.44
2023-05-04T01:23:13.488Z,96651.47
2023-05-04T01:25:44.320Z,96659.78
2023-05-04T01:28:14.015Z,96651.59
2023-05-04T01:30:43.936Z,96665.63
2023-05-04T01:33:11.149Z,96667.63
2023-05-04T01:35:37.810Z,96667.09
2023-05-04T01:38:04.285Z,96678.97
2023-05-04T01:40:30.831Z,96679.78
2023-05-04T01:42:57.244Z,96678.25
2023-05-04T01:45:23.622Z,96674.44
2023-05-04T01:47:50.184Z,96677.09
2023-05-04T01:50:17.491Z,96673.31
2023-05-04T01:52:43.800Z,96675.59
2023-05-04T01:55:10.208Z,96678.63
2023-05-04T01:57:36.493Z,96682.53
2023-05-04T02:00:03.933Z,96683.22
2023-05-04T02:02:31.613Z,96682.53
2023-05-04T02:04:57.978Z,96678.25
2023-05-04T02:07:24.315Z,96682.31
2023-05-04T02:09:50.579Z,96688.31
2023-05-04T02:12:16.933Z,96687.25
2023-05-04T02:14:43.522Z,96687.56
2023-05-04T02:17:09.845Z,96686.69
2023-05-04T02:19:36.230Z,96681.13
2023-05-04T02:22:02.683Z,96679.19
2023-05-04T02:24:29.781Z,96682.63
2023-05-04T02:26:56.157Z,96686.22
2023-05-04T02:29:22.850Z,96688.50
2023-05-04T02:31:49.257Z,96685.25
2023-05-04T02:34:15.846Z,96684.72
2023-05-04T02:36:42.266Z,96676.88
2023-05-04T02:39:08.710Z,96686.28
2023-05-04T02:41:35.105Z,96683.41
2023-05-04T02:44:01.535Z,96686.28
2023-05-04T02:46:28.044Z,96678.13
2023-05-04T02:48:54.348Z,96675.81
2023-05-04T02:51:20.725Z,96678.00
2023-05-04T02:53:47.073Z,96678.78
2023-05-04T02:56:13.474Z,96680.50
2023-05-04T02:58:39.882Z,96672.78
2023-05-04T03:01:06.378Z,96671.91
2023-05-04T03:03:32.776Z,96673.75
2023-05-04T03:05:59.155Z,96675.72
2023-05-04T03:08:25.600Z,96673.84
2023-05-04T03:10:51.891Z,96680.31
2023-05-04T03:13:18.321Z,96663.16
2023-05-04T03:15:44.626Z,96682.72
2023-05-04T03:18:10.960Z,96675.59
2023-05-04T03:20:37.524Z,96674.00
2023-05-04T03:23:03.851Z,96667.50
2023-05-04T03:25:30.261Z,96671.09
2023-05-04T03:27:57.358Z,96670.47
2023-05-04T03:30:25.398Z,96663.38
2023-05-04T03:32:54.448Z,96672.56
2023-05-04T03:35:24.580Z,96666.59
2023-05-04T03:37:51.476Z,96660.38
2023-05-04T03:40:22.805Z,96660.59
2023-05-04T03:42:49.269Z,96660.34
2023-05-04T03:45:15.844Z,96662.50
2023-05-04T03:47:42.232Z,96657.56
2023-05-04T03:50:09.657Z,96658.97
2023-05-04T03:52:36.257Z,96662.88
2023-05-04T03:55:03.010Z,96663.59
2023-05-04T03:57:29.337Z,96665.84
2023-05-04T03:59:57.691Z,96663.19
2023-05-04T04:02:24.372Z,96660.09
2023-05-04T04:04:50.827Z,96656.22
2023-05-04T04:07:17.874Z,96660.69
2023-05-04T04:09:44.198Z,96662.31
2023-05-04T04:12:10.712Z,96660.09
2023-05-04T04:14:37.041Z,96668.66
2023-05-04T04:17:03.373Z,96668.22
2023-05-04T04:19:29.939Z,96665.59
2023-05-04T04:21:58.198Z,96670.50
2023-05-04T04:24:25.139Z,96664.72
2023-05-04T04:26:51.917Z,96668.06
2023-05-04T04:29:18.211Z,96675.59
2023-05-04T04:31:44.581Z,96678.59
2023-05-04T04:34:10.919Z,96680.63
2023-05-04T04:36:37.329Z,96682.88
2023-05-04T04:39:05.905Z,96683.63
2023-05-04T04:41:32.350Z,96677.34
2023-05-04T04:43:58.780Z,96675.75
2023-05-04T04:46:25.380Z,96684.66
2023-05-04T04:48:53.498Z,96694.47
2023-05-04T04:51:19.878Z,96692.34
2023-05-04T04:53:47.007Z,96694.66
2023-05-04T04:56:13.414Z,96686.97
2023-05-04T04:58:40.416Z,96684.66
2023-05-04T05:01:08.235Z,96691.25
2023-05-04T05:03:34.777Z,96696.53
2023-05-04T05:06:04.058Z,96688.25
2023-05-04T05:08:32.522Z,96699.50
2023-05-04T05:10:58.863Z,96700.41
2023-05-04T05:13:25.353Z,96702.88
2023-05-04T05:15:51.772Z,96709.19
2023-05-04T05:18:18.113Z,96715.16
2023-05-04T05:20:44.694Z,96715.22
2023-05-04T05:23:11.221Z,96721.50
2023-05-04T05:25:38.746Z,96717.22
2023-05-04T05:28:05.590Z,96725.28
2023-05-04T05:30:31.947Z,96727.88
2023-05-04T05:32:58.342Z,96718.69
2023-05-04T05:35:24.766Z,96718.78
2023-05-04T05:37:51.130Z,96721.53
2023-05-04T05:40:17.705Z,96715.00
2023-05-04T05:42:44.962Z,96714.44
2023-05-04T05:45:11.454Z,96714.97
2023-05-04T05:47:37.822Z,96717.19
2023-05-04T05:50:04.572Z,96707.50
2023-05-04T05:52:31.165Z,96702.19
2023-05-04T05:54:57.763Z,96697.06
2023-05-04T05:57:24.841Z,96697.94
2023-05-04T05:59:51.400Z,96695.63
2023-05-04T06:02:18.587Z,96690.66
2023-05-04T06:04:45.169Z,96690.53
2023-05-04T06:07:13.497Z,96687.75
2023-05-04T06:09:39.869Z,96692.53
2023-05-04T06:12:07.199Z,96693.03
2023-05-04T06:14:33.573Z,96691.59
2023-05-04T06:16:59.997Z,96696.16
2023-05-04T06:19:27.517Z,96682.63
2023-05-04T06:21:54.854Z,96685.28
2023-05-04T06:24:22.681Z,96689.66
2023-05-04T06:26:52.481Z,96685.44
2023-05-04T06:29:18.839Z,96691.53
2023-05-04T06:31:48.280Z,96683.56
2023-05-04T06:34:17.873Z,96674.63
2023-05-04T06:36:44.417Z,96675.75
2023-05-04T06:39:10.805Z,96666.94
2023-05-04T06:41:37.156Z,96667.50
2023-05-04T06:44:04.615Z,96668.69
2023-05-04T06:46:31.529Z,96658.66
2023-05-04T06:48:58.349Z,96659.47
2023-05-04T06:51:24.709Z,96654.50
2023-05-04T06:53:51.000Z,96660.91
2023-05-04T06:56:18.703Z,96659.16
2023-05-04T06:58:45.129Z,96658.50
2023-05-04T07:01:11.626Z,96651.91
2023-05-04T07:03:38.870Z,96646.63
2023-05-04T07:06:05.495Z,96646.75
2023-05-04T07:08:31.887Z,96649.84
2023-05-04T07:10:58.275Z,96635.00
2023-05-04T07:13:25.132Z,96625.53
2023-05-04T07:15:51.525Z,96629.00
2023-05-04T07:18:18.239Z,96630.75
2023-05-04T07:20:44.615Z,96623.31
2023-05-04T07:23:11.559Z,96627.53
2023-05-04T07:25:37.914Z,96628.09
2023-05-04T07:28:04.479Z,96626.16
2023-05-04T07:30:30.836Z,96635.69
2023-05-04T07:32:57.193Z,96631.94
2023-05-04T07:35:23.626Z,96633.25
2023-05-04T07:37:49.984Z,96638.38
2023-05-04T07:40:16.695Z,96625.94
2023-05-04T07:42:43.174Z,96637.66
2023-05-04T07:45:09.822Z,96629.81
2023-05-04T07:47:36.706Z,96635.34
2023-05-04T07:50:03.869Z,96640.81
2023-05-04T07:52:30.662Z,96636.75
2023-05-04T07:54:57.017Z,96631.88
2023-05-04T07:57:23.449Z,96628.16
2023-05-04T07:59:53.221Z,96640.41
2023-05-04T08:02:19.679Z,96634.88
2023-05-04T08:04:46.393Z,96627.78
2023-05-04T08:07:15.495Z,96632.84
2023-05-04T08:09:41.797Z,96627.31
2023-05-04T08:12:08.895Z,96619.81
2023-05-04T08:14:37.538Z,96616.13
2023-05-04T08:17:04.513Z,96613.91
2023-05-04T08:19:31.140Z,96612.59
2023-05-04T08:21:57.480Z,96621.09
2023-05-04T08:24:26.396Z,96618.66
2023-05-04T08:27:06.657Z,96615.97
2023-05-04T08:29:34.910Z,96608.44
2023-05-04T08:32:01.325Z,96621.41
2023-05-04T08:34:27.699Z,96619.25
2023-05-04T08:36:54.247Z,96618.22
2023-05-04T08:39:20.757Z,96620.94
2023-05-04T08:41:47.974Z,96624.13
2023-05-04T08:44:14.900Z,96619.41
2023-05-04T08:46:41.286Z,96616.91
2023-05-04T08:49:07.738Z,96613.09
2023-05-04T08:51:36.314Z,96601.84
2023-05-04T08:54:06.083Z,96597.84
2023-05-04T08:56:32.695Z,96601.25
2023-05-04T08:59:01.934Z,96601.69
2023-05-04T09:01:29.855Z,96604.72
2023-05-04T09:03:57.561Z,96601.25
2023-05-04T09:06:24.106Z,96596.44
2023-05-04T09:08:50.415Z,96591.59
2023-05-04T09:11:17.759Z,96596.59
2023-05-04T09:13:44.041Z,96593.50
2023-05-04T09:16:12.246Z,96596.75
2023-05-04T09:18:40.979Z,96592.44
2023-05-04T09:21:07.712Z,96581.94
2023-05-04T09:23:44.530Z,96591.09
2023-05-04T09:26:10.891Z,96589.47
2023-05-04T09:28:39.027Z,96576.97
2023-05-04T09:31:06.238Z,96571.09
2023-05-04T09:33:32.638Z,96565.59
2023-05-04T09:36:19.263Z,96571.41
2023-05-04T09:38:46.487Z,96564.44
2023-05-04T09:41:12.944Z,96564.16
2023-05-04T09:43:42.020Z,96564.47
2023-05-04T09:46:18.757Z,96566.56
2023-05-04T09:48:55.634Z,96555.59
2023-05-04T09:51:23.218Z,96548.72
2023-05-04T09:53:50.404Z,96555.88
2023-05-04T09:56:35.649Z,96544.53
2023-05-04T09:59:02.764Z,96537.25
2023-05-04T10:01:29.770Z,96542.09
2023-05-04T10:03:56.197Z,96547.38
2023-05-04T10:06:24.279Z,96548.28
2023-05-04T10:08:51.009Z,96547.47
2023-05-04T10:11:19.290Z,96546.75
2023-05-04T10:13:46.705Z,96545.78
2023-05-04T10:16:31.783Z,96547.53
2023-05-04T10:18:58.204Z,96545.75
2023-05-04T10:21:39.210Z,96541.72
2023-05-04T10:24:18.346Z,96549.84
2023-05-04T10:27:03.489Z,96543.72
2023-05-04T10:29:33.038Z,96542.84
2023-05-04T10:31:59.673Z,96538.31
2023-05-04T10:34:27.611Z,96534.91
2023-05-04T10:36:54.165Z,96522.50
2023-05-04T10:39:21.090Z,96524.47
2023-05-04T10:41:59.116Z,96525.72
2023-05-04T10:44:25.794Z,96524.88
2023-05-04T10:47:05.717Z,96512.38
2023-05-04T10:49:33.160Z,96519.63
2023-05-04T10:52:06.586Z,96521.53
2023-05-04T10:54:32.884Z,96518.44
2023-05-04T10:57:02.867Z,96522.75
2023-05-04T10:59:29.305Z,96512.09
2023-05-04T11:01:55.674Z,96498.25
2023-05-04T11:04:22.527Z,96501.09
2023-05-04T11:07:01.930Z,96497.59
2023-05-04T11:09:28.768Z,96494.06
2023-05-04T11:11:56.235Z,96498.69
2023-05-04T11:14:24.154Z,96496.16
2023-05-04T11:16:50.629Z,96484.34
2023-05-04T11:19:18.212Z,96484.16
2023-05-04T11:21:44.804Z,96478.50
2023-05-04T11:24:11.347Z,96480.31
2023-05-04T11:26:49.366Z,96483.63
2023-05-04T11:29:15.868Z,96476.50
2023-05-04T11:31:44.332Z,96475.19
2023-05-04T11:34:18.857Z,96475.06
2023-05-04T11:36:45.321Z,96464.16
2023-05-04T11:39:11.883Z,96462.19
2023-05-04T11:41:38.303Z,96453.84
2023-05-04T11:44:05.243Z,96450.56
2023-05-04T11:46:32.947Z,96448.00
2023-05-04T11:48:59.415Z,96446.78
2023-05-04T11:51:25.846Z,96445.53
2023-05-04T11:53:53.579Z,96445.09
2023-05-04T11:56:19.927Z,96448.09
2023-05-04T11:58:46.306Z,96441.78
2023-05-04T12:01:14.068Z,96435.22
2023-05-04T12:03:51.959Z,96442.50
2023-05-04T12:06:30.897Z,96434.75
2023-05-04T12:09:01.705Z,96432.72
2023-05-04T12:11:28.765Z,96437.59
2023-05-04T12:14:05.519Z,96438.38
2023-05-04T12:16:32.072Z,96425.31
2023-05-04T12:19:03.196Z,96428.84
2023-05-04T12:21:30.269Z,96424.88
2023-05-04T12:23:57.699Z,96420.53
2023-05-04T12:26:24.152Z,96412.56
2023-05-04T12:28:52.785Z,96411.56
2023-05-04T12:31:19.325Z,96411.34
2023-05-04T12:33:45.785Z,96410.66
2023-05-04T12:36:12.199Z,96408.16
2023-05-04T12:38:38.925Z,96405.63
2023-05-04T12:41:06.323Z,96405.81
2023-05-04T12:43:33.313Z,96399.84
2023-05-04T12:45:59.676Z,96397.59
2023-05-04T12:48:28.296Z,96391.19
2023-05-04T12:50:54.695Z,96384.59
2023-05-04T12:53:27.826Z,96386.84
2023-05-04T12:55:54.444Z,96381.56
2023-05-04T12:58:21.538Z,96380.16
2023-05-04T13:00:48.860Z,96374.59
2023-05-04T13:03:18.148Z,96374.59
2023-05-04T13:05:49.975Z,96363.09
2023-05-04T13:08:17.921Z,96365.16
2023-05-04T13:10:46.198Z,96356.97
2023-05-04T13:13:13.424Z,96355.09
2023-05-04T13:15:40.152Z,96347.78
2023-05-04T13:18:06.728Z,96339.75
2023-05-04T13:20:33.471Z,96340.94
2023-05-04T13:22:59.867Z,96336.59
2023-05-04T13:25:26.952Z,96325.91
2023-05-04T13:27:53.399Z,96326.34
2023-05-04T13:30:21.518Z,96325.94
2023-05-04T13:32:49.078Z,96315.97
2023-05-04T13:35:16.185Z,96303.56
2023-05-04T13:37:42.573Z,96307.25
2023-05-04T13:40:09.511Z,96306.31
2023-05-04T13:42:37.201Z,96297.38
2023-05-04T13:45:04.264Z,96291.53
2023-05-04T13:47:30.815Z,96288.91
2023-05-04T13:49:57.138Z,96288.34
2023-05-04T13:52:23.659Z,96290.41
2023-05-04T13:54:49.969Z,96276.66
2023-05-04T13:57:16.460Z,96279.78
2023-05-04T13:59:48.745Z,96277.75
2023-05-04T14:02:41.643Z,96274.09
2023-05-04T14:05:08.946Z,96268.44
2023-05-04T14:07:53.896Z,96263.59
2023-05-04T14:10:20.342Z,96256.75
2023-05-04T14:12:47.707Z,96250.03
2023-05-04T14:15:17.618Z,96250.53
2023-05-04T14:17:43.985Z,96244.50
2023-05-04T14:20:10.454Z,96236.19
2023-05-04T14:22:38.179Z,96228.84
2023-05-04T14:25:04.985Z,96228.84
2023-05-04T14:27:34.377Z,96228.34
2023-05-04T14:30:01.444Z,96218.53
2023-05-04T14:32:27.961Z,96225.06
2023-05-04T14:35:00.225Z,96217.19
2023-05-04T14:37:27.071Z,96218.16
2023-05-04T14:39:54.386Z,96215.75
2023-05-04T14:42:20.726Z,96213.41
2023-05-04T14:44:47.454Z,96208.38
2023-05-04T14:47:16.250Z,96195.97
2023-05-04T14:49:42.974Z,96193.16
2023-05-04T14:52:09.438Z,96194.41
2023-05-04T14:54:35.918Z,96192.22
2023-05-04T14:57:02.961Z,96189.28
2023-05-04T14:59:29.476Z,96198.00
2023-05-04T15:01:57.802Z,96192.50
2023-05-04T15:04:24.098Z,96194.41
2023-05-04T15:06:50.561Z,96198.13
2023-05-04T15:09:17.320Z,96198.44
2023-05-04T15:11:43.692Z,96188.28
2023-05-04T15:14:10.050Z,96191.66
2023-05-04T15:16:36.476Z,96186.44
2023-05-04T15:19:02.903Z,96192.88
2023-05-04T15:21:29.310Z,96188.66
2023-05-04T15:23:56.015Z,96189.34
2023-05-04T15:26:22.408Z,96191.63
2023-05-04T15:28:49.575Z,96187.06
2023-05-04T15:31:17.583Z,96191.03
2023-05-04T15:33:49.311Z,96200.50
2023-05-04T15:36:15.634Z,96207.13
2023-05-04T15:38:45.193Z,96210.78
2023-05-04T15:41:12.058Z,96203.28
2023-05-04T15:43:38.749Z,96209.63
2023-05-04T15:46:07.180Z,96218.09
2023-05-04T15:48:33.594Z,96213.50
2023-05-04T15:50:59.977Z,96207.16
2023-05-04T15:53:26.738Z,96215.34
2023-05-04T15:55:53.133Z,96207.03
2023-05-04T15:58:19.526Z,96209.38
2023-05-04T16:00:46.085Z,96202.56
2023-05-04T16:03:12.631Z,96210.59
2023-05-04T16:05:39.261Z,96202.34
2023-05-04T16:08:05.689Z,96208.44
2023-05-04T16:10:32.202Z,96202.16
2023-05-04T16:13:04.783Z,96211.88
2023-05-04T16:15:31.317Z,96210.75
2023-05-04T16:17:57.681Z,96216.19
2023-05-04T16:20:24.176Z,96212.09
2023-05-04T16:22:50.539Z,96219.34
2023-05-04T16:25:17.768Z,96220.78
2023-05-04T16:27:44.094Z,96217.72
2023-05-04T16:30:21.615Z,96228.09
2023-05-04T16:32:48.659Z,96216.38
2023-05-04T16:35:15.069Z,96219.00
2023-05-04T16:37:41.442Z,96225.16
2023-05-04T16:40:17.379Z,96215.06
2023-05-04T16:42:43.972Z,96219.78
2023-05-04T16:45:13.711Z,96214.88
2023-05-04T16:47:41.807Z,96218.09
2023-05-04T16:50:08.997Z,96220.53
2023-05-04T16:52:35.661Z,96220.94
2023-05-04T16:55:02.102Z,96222.41
2023-05-04T16:57:28.438Z,96227.44
2023-05-04T16:59:55.032Z,96225.88
2023-05-04T17:02:21.648Z,96229.91
2023-05-04T17:04:48.835Z,96233.88
2023-05-04T17:07:15.178Z,96225.31
2023-05-04T17:09:41.483Z,96232.50
2023-05-04T17:12:07.894Z,96232.31
2023-05-04T17:14:37.042Z,96230.91
2023-05-04T17:17:03.696Z,96227.72
2023-05-04T17:19:29.999Z,96233.09
2023-05-04T17:21:56.366Z,96236.88
2023-05-04T17:24:22.720Z,96231.91
2023-05-04T17:26:49.841Z,96232.13
2023-05-04T17:29:16.519Z,96238.69
2023-05-04T17:31:43.940Z,96236.44
2023-05-04T17:34:10.262Z,96243.44
2023-05-04T17:36:36.615Z,96248.59
2023-05-04T17:39:03.986Z,96255.75
2023-05-04T17:41:31.199Z,96254.94
2023-05-04T17:44:06.191Z,96263.47
2023-05-04T17:46:32.656Z,96266.06
2023-05-04T17:48:59.107Z,96272.63
2023-05-04T17:51:25.440Z,96271.59
2023-05-04T17:53:52.215Z,96280.53
2023-05-04T17:56:20.377Z,96286.44
2023-05-04T17:58:46.687Z,96295.72
2023-05-04T18:01:13.071Z,96291.97
2023-05-04T18:03:39.747Z,96297.72
2023-05-04T18:06:06.394Z,96307.84
2023-05-04T18:08:32.706Z,96311.38
2023-05-04T18:10:59.035Z,96312.91
2023-05-04T18:13:25.652Z,96309.59
2023-05-04T18:15:52.278Z,96317.66
2023-05-04T18:18:19.769Z,96323.28
2023-05-04T18:20:46.055Z,96328.03
2023-05-04T18:23:12.412Z,96334.00
2023-05-04T18:25:39.344Z,96336.41
2023-05-04T18:28:08.909Z,96333.72
2023-05-04T18:30:35.671Z,96336.25
2023-05-04T18:33:21.242Z,96343.63
2023-05-04T18:35:47.736Z,96343.63
2023-05-04T18:38:14.038Z,96347.31
2023-05-04T18:40:40.336Z,96355.97
2023-05-04T18:43:06.652Z,96362.25
2023-05-04T18:45:33.208Z,96369.50
2023-05-04T18:47:59.618Z,96368.97
2023-05-04T18:50:26.012Z,96370.56
2023-05-04T18:52:56.028Z,96380.84
2023-05-04T18:55:22.437Z,96382.69
2023-05-04T18:57:50.847Z,96385.00
2023-05-04T19:00:17.152Z,96388.53
2023-05-04T19:02:43.472Z,96392.63
2023-05-04T19:05:10.817Z,96405.72
2023-05-04T19:07:38.638Z,96411.00
2023-05-04T19:10:06.629Z,96414.88
2023-05-04T19:12:33.688Z,96410.78
2023-05-04T19:15:00.033Z,96423.50
2023-05-04T19:17:26.348Z,96430.94
2023-05-04T19:19:52.759Z,96432.25
2023-05-04T19:22:19.766Z,96430.06
2023-05-04T19:24:49.379Z,96437.66
2023-05-04T19:27:15.834Z,96440.88
2023-05-04T19:29:42.142Z,96441.78
2023-05-04T19:32:19.920Z,96446.16
2023-05-04T19:34:50.316Z,96444.00
2023-05-04T19:37:16.668Z,96446.88
2023-05-04T19:39:43.005Z,96452.31
2023-05-04T19:42:09.331Z,96451.16
2023-05-04T19:44:35.758Z,96460.09
2023-05-04T19:47:02.070Z,96465.63
2023-05-04T19:49:28.577Z,96462.81
2023-05-04T19:51:54.983Z,96467.28
2023-05-04T19:54:21.306Z,96457.22
2023-05-04T19:56:50.000Z,96469.75
2023-05-04T19:59:16.919Z,96469.94
2023-05-04T20:01:43.305Z,96473.66
2023-05-04T20:04:10.592Z,96473.47
2023-05-04T20:06:36.974Z,96474.94
2023-05-04T20:09:03.859Z,96468.34
2023-05-04T20:11:30.350Z,96468.34
2023-05-04T20:13:56.748Z,96478.28
2023-05-04T20:16:23.430Z,96477.66
2023-05-04T20:18:49.764Z,96479.50
2023-05-04T20:21:16.622Z,96487.06
2023-05-04T20:23:43.545Z,96490.06
2023-05-04T20:26:10.007Z,96492.63
2023-05-04T20:28:36.354Z,96488.13
2023-05-04T20:31:02.683Z,96501.28
2023-05-04T20:33:29.030Z,96488.25
2023-05-04T20:35:55.440Z,96493.59
2023-05-04T20:38:21.777Z,96496.69
2023-05-04T20:40:49.837Z,96503.72
2023-05-04T20:43:17.364Z,96495.00
2023-05-04T20:45:44.798Z,96501.97
2023-05-04T20:48:11.292Z,96496.03
2023-05-04T20:50:39.780Z,96498.47
2023-05-04T20:53:06.319Z,96509.34
2023-05-04T20:55:32.661Z,96504.72
2023-05-04T20:57:58.983Z,96503.75
2023-05-04T21:00:25.276Z,96506.34
2023-05-04T21:02:51.791Z,96508.59
2023-05-04T21:05:18.380Z,96511.94
2023-05-04T21:07:45.441Z,96509.69
2023-05-04T21:10:12.316Z,96508.72
2023-05-04T21:12:38.924Z,96508.72
2023-05-04T21:15:05.586Z,96507.59
2023-05-04T21:17:32.243Z,96507.59
2023-05-04T21:19:58.709Z,96503.91
2023-05-04T21:22:25.067Z,96506.97
2023-05-04T21:24:51.856Z,96506.94
2023-05-04T21:27:18.400Z,96506.44
2023-05-04T21:29:44.766Z,96502.31
2023-05-04T21:32:11.057Z,96506.63
2023-05-04T21:34:37.364Z,96501.00
2023-05-04T21:37:03.877Z,96514.28
2023-05-04T21:39:30.359Z,96512.53
2023-05-04T21:41:56.698Z,96515.41
2023-05-04T21:44:23.137Z,96518.94
2023-05-04T21:46:49.803Z,96516.69
2023-05-04T21:49:16.202Z,96518.59
2023-05-04T21:51:42.737Z,96523.91
2023-05-04T21:54:09.280Z,96524.06
2023-05-04T21:56:35.866Z,96519.75
2023-05-04T21:59:03.104Z,96528.53
2023-05-04T22:01:29.604Z,96523.84
2023-05-04T22:03:56.127Z,96528.81
2023-05-04T22:06:24.425Z,96529.81
2023-05-04T22:08:50.867Z,96530.09
2023-05-04T22:11:17.355Z,96521.75
2023-05-04T22:13:43.782Z,96530.53
2023-05-04T22:16:11.180Z,96526.53
2023-05-04T22:18:37.880Z,96536.16
2023-05-04T22:21:04.363Z,96529.25
2023-05-04T22:23:30.871Z,96538.03
2023-05-04T22:25:57.427Z,96535.63
2023-05-04T22:28:23.896Z,96540.13
2023-05-04T22:30:50.437Z,96545.56
2023-05-04T22:33:17.468Z,96542.84
2023-05-04T22:35:43.909Z,96540.22
2023-05-04T22:38:10.898Z,96544.16
2023-05-04T22:40:40.191Z,96550.25
2023-05-04T22:43:06.994Z,96549.09
2023-05-04T22:45:34.866Z,96562.44
2023-05-04T22:48:01.425Z,96556.31
2023-05-04T22:50:27.932Z,96564.56
2023-05-04T22:52:54.439Z,96556.25
2023-05-04T22:55:20.876Z,96556.31
2023-05-04T22:57:47.371Z,96562.97
2023-05-04T23:00:14.165Z,96556.88
2023-05-04T23:02:40.987Z,96560.41
2023-05-04T23:05:08.951Z,96565.09
2023-05-04T23:07:35.804Z,96558.66
2023-05-04T23:10:02.247Z,96574.88
2023-05-04T23:12:28.726Z,96567.06
2023-05-04T23:14:55.175Z,96567.38
2023-05-04T23:17:22.249Z,96571.19
2023-05-04T23:19:49.805Z,96571.09
2023-05-04T23:22:16.453Z,96575.91
2023-05-04T23:24:43.178Z,96573.13
2023-05-04T23:27:11.352Z,96579.91
2023-05-04T23:29:37.883Z,96573.78
2023-05-04T23:32:04.606Z,96573.34
2023-05-04T23:34:31.185Z,96572.81
2023-05-04T23:36:58.183Z,96577.78
2023-05-04T23:39:24.648Z,96574.88
2023-05-04T23:41:51.094Z,96574.78
2023-05-04T23:44:18.578Z,96581.66
2023-05-04T23:46:45.075Z,96583.94
2023-05-04T23:49:12.137Z,96586.25
2023-05-04T23:51:38.657Z,96590.38
2023-05-04T23:54:05.092Z,96586.34
2023-05-04T23:56:31.952Z,96591.66
2023-05-04T23:58:58.455Z,96586.25
